createdAt,value
2019-05-20T00:00:54.947Z,11.20
2019-05-20T00:03:24.574Z,13.05
2019-05-20T00:05:54.278Z,12.45
2019-05-20T00:08:23.861Z,11.80
2019-05-20T00:10:53.508Z,11.78
2019-05-20T00:13:23.228Z,11.03
2019-05-20T00:15:52.849Z,12.95
2019-05-20T00:18:22.572Z,12.55
2019-05-20T00:20:52.283Z,11.68
2019-05-20T00:23:21.243Z,10.25
2019-05-20T00:25:50.912Z,9.18
2019-05-20T00:28:20.575Z,11.38
2019-05-20T00:30:50.181Z,11.05
2019-05-20T00:33:20.041Z,11.60
2019-05-20T00:35:49.639Z,12.18
2019-05-20T00:38:19.290Z,11.65
2019-05-20T00:40:49.024Z,11.90
2019-05-20T00:43:18.631Z,11.78
2019-05-20T00:45:48.406Z,10.78
2019-05-20T00:48:18.047Z,11.65
2019-05-20T00:50:47.667Z,10.35
2019-05-20T00:53:17.360Z,9.43
2019-05-20T00:55:47.151Z,11.78
2019-05-20T00:58:16.816Z,13.13
2019-05-20T01:00:46.475Z,11.63
2019-05-20T01:03:16.103Z,13.08
2019-05-20T01:05:45.774Z,13.45
2019-05-20T01:08:15.401Z,10.80
2019-05-20T01:10:45.154Z,12.07
2019-05-20T01:13:14.945Z,12.93
2019-05-20T01:15:44.655Z,15.18
2019-05-20T01:18:14.352Z,10.85
2019-05-20T01:20:44.044Z,9.00
2019-05-20T01:23:13.720Z,13.08
2019-05-20T01:25:43.476Z,13.25
2019-05-20T01:28:13.096Z,13.68
2019-05-20T01:30:42.805Z,15.10
2019-05-20T01:33:14.169Z,10.80
2019-05-20T01:35:43.767Z,15.08
2019-05-20T01:38:13.562Z,12.63
2019-05-20T01:40:43.628Z,12.85
2019-05-20T01:43:13.279Z,13.62
2019-05-20T01:45:42.937Z,13.88
2019-05-20T01:48:12.539Z,15.32
2019-05-20T01:50:49.478Z,13.15
2019-05-20T01:53:19.151Z,12.03
2019-05-20T01:55:48.864Z,14.18
2019-05-20T01:58:18.509Z,13.30
2019-05-20T02:00:48.311Z,12.35
2019-05-20T02:03:30.986Z,12.33
2019-05-20T02:05:50.110Z,12.65
2019-05-20T02:08:19.755Z,12.90
2019-05-20T02:10:49.402Z,12.10
2019-05-20T02:13:19.004Z,11.55
2019-05-20T02:15:55.337Z,13.62
2019-05-20T02:18:24.993Z,13.40
2019-05-20T02:21:03.387Z,11.40
2019-05-20T02:23:32.355Z,14.00
2019-05-20T02:26:02.034Z,12.80
2019-05-20T02:28:30.980Z,13.00
2019-05-20T02:31:19.710Z,13.00
2019-05-20T02:33:52.754Z,11.55
2019-05-20T02:36:21.271Z,13.13
2019-05-20T02:39:00.012Z,12.90
2019-05-20T02:41:29.769Z,14.53
2019-05-20T02:43:58.677Z,14.93
2019-05-20T02:46:28.390Z,14.80
2019-05-20T02:48:57.356Z,13.30
2019-05-20T02:51:32.943Z,14.73
2019-05-20T02:54:03.997Z,14.15
2019-05-20T02:56:33.641Z,14.10
2019-05-20T02:59:03.344Z,13.78
2019-05-20T03:01:33.063Z,14.18
2019-05-20T03:04:11.708Z,13.10
2019-05-20T03:06:34.076Z,14.05
2019-05-20T03:09:04.080Z,15.63
2019-05-20T03:11:33.793Z,12.07
2019-05-20T03:14:02.821Z,16.32
2019-05-20T03:16:32.487Z,14.63
2019-05-20T03:19:02.154Z,13.15
2019-05-20T03:21:31.797Z,13.62
2019-05-20T03:24:01.452Z,12.80
2019-05-20T03:26:31.106Z,12.85
2019-05-20T03:29:00.722Z,12.20
2019-05-20T03:31:30.343Z,12.45
2019-05-20T03:34:00.085Z,12.27
2019-05-20T03:36:29.718Z,13.32
2019-05-20T03:38:59.344Z,13.55
2019-05-20T03:41:29.039Z,14.50
2019-05-20T03:43:58.782Z,13.18
2019-05-20T03:46:28.470Z,12.30
2019-05-20T03:48:58.151Z,12.95
2019-05-20T03:51:27.860Z,13.58
2019-05-20T03:53:57.600Z,13.35
2019-05-20T03:56:27.241Z,10.20
2019-05-20T03:58:56.968Z,11.85
2019-05-20T04:01:25.925Z,10.38
2019-05-20T04:03:54.888Z,11.30
2019-05-20T04:06:24.544Z,9.90
2019-05-20T04:08:57.060Z,11.08
2019-05-20T04:11:26.703Z,10.98
2019-05-20T04:13:55.747Z,10.88
2019-05-20T04:16:25.393Z,10.08
2019-05-20T04:18:55.068Z,10.98
2019-05-20T04:21:24.745Z,12.35
2019-05-20T04:23:54.481Z,9.25
2019-05-20T04:26:24.121Z,10.20
2019-05-20T04:28:53.934Z,9.40
2019-05-20T04:31:23.586Z,11.68
2019-05-20T04:33:53.410Z,10.18
2019-05-20T04:36:23.129Z,9.23
2019-05-20T04:38:56.282Z,12.30
2019-05-20T04:41:26.236Z,9.70
2019-05-20T04:43:55.976Z,10.50
2019-05-20T04:46:24.989Z,10.15
2019-05-20T04:48:54.712Z,8.55
2019-05-20T04:51:24.366Z,9.53
2019-05-20T04:53:53.343Z,9.85
2019-05-20T04:56:23.036Z,9.75
2019-05-20T04:58:52.703Z,10.45
2019-05-20T05:01:22.412Z,11.43
2019-05-20T05:03:52.125Z,11.93
2019-05-20T05:06:21.804Z,10.75
2019-05-20T05:08:51.497Z,9.40
2019-05-20T05:11:21.228Z,10.13
2019-05-20T05:13:50.894Z,10.35
2019-05-20T05:16:20.759Z,11.55
2019-05-20T05:18:50.461Z,10.93
2019-05-20T05:21:20.137Z,12.00
2019-05-20T05:23:58.907Z,8.98
2019-05-20T05:26:21.221Z,9.00
2019-05-20T05:28:51.045Z,9.10
2019-05-20T05:31:20.849Z,10.82
2019-05-20T05:33:54.136Z,10.32
2019-05-20T05:36:22.040Z,10.38
2019-05-20T05:38:51.823Z,10.48
2019-05-20T05:41:21.584Z,9.98
2019-05-20T05:43:51.225Z,10.63
2019-05-20T05:46:21.004Z,9.28
2019-05-20T05:48:51.662Z,10.43
2019-05-20T05:51:21.353Z,9.40
2019-05-20T05:53:50.323Z,9.95
2019-05-20T05:56:20.052Z,8.55
2019-05-20T05:58:49.841Z,9.63
2019-05-20T06:01:19.559Z,10.05
2019-05-20T06:03:49.298Z,11.35
2019-05-20T06:06:18.934Z,10.48
2019-05-20T06:08:48.599Z,9.55
2019-05-20T06:11:18.292Z,11.22
2019-05-20T06:13:49.652Z,12.37
2019-05-20T06:16:35.255Z,10.75
2019-05-20T06:18:55.596Z,11.25
2019-05-20T06:21:49.199Z,11.03
2019-05-20T06:24:17.944Z,10.40
2019-05-20T06:26:47.608Z,12.25
2019-05-20T06:29:22.907Z,12.07
2019-05-20T06:31:47.609Z,12.95
2019-05-20T06:34:19.203Z,11.12
2019-05-20T06:36:51.335Z,12.15
2019-05-20T06:39:23.540Z,11.48
2019-05-20T06:41:52.595Z,10.93
2019-05-20T06:44:25.388Z,12.40
2019-05-20T06:47:02.658Z,12.78
2019-05-20T06:49:39.501Z,10.88
2019-05-20T06:52:14.735Z,11.88
2019-05-20T06:54:46.340Z,10.45
2019-05-20T06:57:18.176Z,12.47
2019-05-20T06:59:50.377Z,12.45
2019-05-20T07:02:22.851Z,11.45
2019-05-20T07:04:51.779Z,11.57
2019-05-20T07:07:31.015Z,10.50
2019-05-20T07:10:08.159Z,12.58
2019-05-20T07:12:52.901Z,11.95
2019-05-20T07:15:22.602Z,11.33
2019-05-20T07:18:00.252Z,11.80
2019-05-20T07:20:39.508Z,12.05
2019-05-20T07:23:08.459Z,10.95
2019-05-20T07:25:44.579Z,12.00
2019-05-20T07:28:16.791Z,11.85
2019-05-20T07:30:50.601Z,11.43
2019-05-20T07:33:40.259Z,10.23
2019-05-20T07:36:13.703Z,12.18
2019-05-20T07:38:43.579Z,12.15
2019-05-20T07:41:13.313Z,12.75
2019-05-20T07:43:45.187Z,11.25
2019-05-20T07:46:14.703Z,12.00
2019-05-20T07:48:45.254Z,10.50
2019-05-20T07:51:15.902Z,11.70
2019-05-20T07:53:45.978Z,10.00
2019-05-20T07:56:19.265Z,12.68
2019-05-20T07:58:51.906Z,10.68
2019-05-20T08:01:21.953Z,10.35
2019-05-20T08:03:53.669Z,10.45
2019-05-20T08:06:26.129Z,10.55
2019-05-20T08:08:55.942Z,10.35
2019-05-20T08:11:25.614Z,9.35
2019-05-20T08:13:55.300Z,11.48
2019-05-20T08:16:25.474Z,12.33
2019-05-20T08:18:55.163Z,11.85
2019-05-20T08:21:24.911Z,10.03
2019-05-20T08:23:54.609Z,11.45
2019-05-20T08:26:24.512Z,10.25
2019-05-20T08:28:56.239Z,13.68
2019-05-20T08:31:44.633Z,12.95
2019-05-20T08:34:15.801Z,9.03
2019-05-20T08:36:51.611Z,10.65
2019-05-20T08:39:18.722Z,8.90
2019-05-20T08:41:48.495Z,9.80
2019-05-20T08:44:18.490Z,9.38
2019-05-20T08:46:48.358Z,10.40
2019-05-20T08:49:19.114Z,9.60
2019-05-20T08:51:48.845Z,9.33
2019-05-20T08:54:40.295Z,8.98
2019-05-20T08:57:06.498Z,8.48
2019-05-20T08:59:37.707Z,7.85
2019-05-20T09:02:07.405Z,8.93
2019-05-20T09:04:37.209Z,6.50
2019-05-20T09:07:09.693Z,6.33
2019-05-20T09:09:39.645Z,6.87
2019-05-20T09:12:11.476Z,7.47
2019-05-20T09:14:41.175Z,7.65
2019-05-20T09:17:10.935Z,7.78
2019-05-20T09:19:40.626Z,8.00
2019-05-20T09:22:10.462Z,7.58
2019-05-20T09:24:40.308Z,8.00
2019-05-20T09:27:10.068Z,7.97
2019-05-20T09:29:39.926Z,8.00
2019-05-20T09:32:09.024Z,7.45
2019-05-20T09:34:38.989Z,8.35
2019-05-20T09:37:10.320Z,7.87
2019-05-20T09:39:42.111Z,7.92
2019-05-20T09:42:16.921Z,8.68
2019-05-20T09:44:46.841Z,7.95
2019-05-20T09:47:16.534Z,8.10
2019-05-20T09:49:47.673Z,7.95
2019-05-20T09:52:18.744Z,8.23
2019-05-20T09:54:48.554Z,8.23
2019-05-20T09:57:19.491Z,7.90
2019-05-20T09:59:49.153Z,7.83
2019-05-20T10:02:20.377Z,7.17
2019-05-20T10:04:50.348Z,7.85
2019-05-20T10:07:20.098Z,7.28
2019-05-20T10:09:49.769Z,7.50
2019-05-20T10:12:20.709Z,7.20
2019-05-20T10:14:52.756Z,6.42
2019-05-20T10:17:24.165Z,6.70
2019-05-20T10:19:56.409Z,9.05
2019-05-20T10:22:28.083Z,7.12
2019-05-20T10:24:57.147Z,6.80
2019-05-20T10:27:32.792Z,8.05
2019-05-20T10:30:02.650Z,6.10
2019-05-20T10:32:34.918Z,6.72
2019-05-20T10:35:04.969Z,6.95
2019-05-20T10:37:36.263Z,7.78
2019-05-20T10:40:06.471Z,7.28
2019-05-20T10:42:36.187Z,6.60
2019-05-20T10:45:09.382Z,6.08
2019-05-20T10:47:41.853Z,5.47
2019-05-20T10:50:12.000Z,5.87
2019-05-20T10:52:41.719Z,6.42
2019-05-20T10:55:11.734Z,5.33
2019-05-20T10:57:44.669Z,5.65
2019-05-20T11:00:20.335Z,6.10
2019-05-20T11:02:51.485Z,5.60
2019-05-20T11:05:20.758Z,6.00
2019-05-20T11:07:51.997Z,6.40
2019-05-20T11:10:27.083Z,6.25
2019-05-20T11:12:59.262Z,6.30
2019-05-20T11:15:29.212Z,5.60
2019-05-20T11:17:59.089Z,6.25
2019-05-20T11:20:33.873Z,5.92
2019-05-20T11:23:56.263Z,6.55
2019-05-20T11:26:40.131Z,5.53
2019-05-20T11:29:36.601Z,5.67
2019-05-20T11:49:09.215Z,6.47
2019-05-20T12:08:00.118Z,9.35
2019-05-20T12:14:57.795Z,7.10
2019-05-20T12:17:59.082Z,7.28
2019-05-20T12:24:46.641Z,8.30
2019-05-20T12:27:09.743Z,8.23
2019-05-20T12:29:39.654Z,8.88
2019-05-20T12:32:12.586Z,9.10
2019-05-20T12:34:55.581Z,6.90
2019-05-20T12:37:26.952Z,8.83
2019-05-20T12:40:07.049Z,7.95
2019-05-20T12:42:30.331Z,9.08
2019-05-20T12:45:00.251Z,8.63
2019-05-20T12:47:30.063Z,9.13
2019-05-20T12:49:59.823Z,9.73
2019-05-20T12:52:29.803Z,10.93
2019-05-20T12:55:07.752Z,10.03
2019-05-20T12:57:31.103Z,11.00
2019-05-20T13:00:00.849Z,11.00
2019-05-20T13:02:30.716Z,11.03
2019-05-20T13:05:00.724Z,9.40
2019-05-20T13:07:33.010Z,10.58
2019-05-20T13:10:25.942Z,10.55
2019-05-20T13:12:38.349Z,8.30
2019-05-20T13:15:14.009Z,7.83
2019-05-20T13:17:44.993Z,7.70
2019-05-20T13:20:15.060Z,6.08
2019-05-20T13:22:44.969Z,6.75
2019-05-20T13:25:14.946Z,6.40
2019-05-20T13:27:44.679Z,5.83
2019-05-20T13:30:16.462Z,5.87
2019-05-20T13:32:46.367Z,6.12
2019-05-20T13:35:18.420Z,5.03
2019-05-20T13:37:50.379Z,5.30
2019-05-20T13:40:23.648Z,4.60
2019-05-20T13:42:56.716Z,4.55
2019-05-20T13:45:29.820Z,5.80
2019-05-20T13:48:00.865Z,5.25
2019-05-20T13:50:30.756Z,4.92
2019-05-20T13:53:03.073Z,4.90
2019-05-20T13:55:39.445Z,5.10
2019-05-20T13:58:11.634Z,4.85
2019-05-20T14:00:41.551Z,4.40
2019-05-20T14:03:11.639Z,5.08
2019-05-20T14:05:44.100Z,4.58
2019-05-20T14:08:14.193Z,5.28
2019-05-20T14:10:44.015Z,5.30
2019-05-20T14:13:13.806Z,5.20
2019-05-20T14:15:43.541Z,5.08
2019-05-20T14:18:13.243Z,6.45
2019-05-20T14:20:43.115Z,5.55
2019-05-20T14:23:12.927Z,5.10
2019-05-20T14:25:42.675Z,5.37
2019-05-20T14:28:12.417Z,4.50
2019-05-20T14:30:42.240Z,4.65
2019-05-20T14:33:12.015Z,4.55
2019-05-20T14:35:46.474Z,4.55
2019-05-20T14:38:16.204Z,3.85
2019-05-20T14:40:47.109Z,4.20
2019-05-20T14:43:23.375Z,4.35
2019-05-20T14:45:53.232Z,4.10
2019-05-20T14:48:23.100Z,4.42
2019-05-20T14:50:52.897Z,4.78
2019-05-20T14:53:22.923Z,4.33
2019-05-20T14:55:54.241Z,4.60
2019-05-20T14:58:24.172Z,5.15
2019-05-20T15:01:03.350Z,5.30
2019-05-20T15:03:31.591Z,3.95
2019-05-20T15:06:06.319Z,4.00
2019-05-20T15:08:36.929Z,4.28
2019-05-20T15:11:12.251Z,4.55
2019-05-20T15:13:44.095Z,3.98
2019-05-20T15:16:15.257Z,3.90
2019-05-20T15:18:47.041Z,3.60
2019-05-20T15:21:19.380Z,4.10
2019-05-20T15:23:49.422Z,3.65
2019-05-20T15:29:27.631Z,3.83
2019-05-20T15:31:46.646Z,3.65
2019-05-20T15:34:17.745Z,3.70
2019-05-20T15:36:47.740Z,3.60
2019-05-20T15:39:19.266Z,3.62
2019-05-20T15:41:49.334Z,4.00
2019-05-20T15:44:20.988Z,3.50
2019-05-20T15:46:54.995Z,3.85
2019-05-20T15:49:26.324Z,3.83
2019-05-20T15:52:05.025Z,3.60
2019-05-20T15:54:51.369Z,3.70
2019-05-20T15:57:30.653Z,3.70
2019-05-20T16:00:02.912Z,3.70
2019-05-20T16:02:51.342Z,3.50
2019-05-20T16:05:23.515Z,3.77
2019-05-20T16:07:53.223Z,4.15
2019-05-20T16:10:23.018Z,3.80
2019-05-20T16:12:52.931Z,3.42
2019-05-20T16:15:26.730Z,4.15
2019-05-20T16:17:59.638Z,3.65
2019-05-20T16:20:34.775Z,3.77
2019-05-20T16:23:10.101Z,3.87
2019-05-20T16:25:44.532Z,3.58
2019-05-20T16:28:14.191Z,3.87
2019-05-20T16:30:44.335Z,3.83
2019-05-20T16:33:14.148Z,4.10
2019-05-20T16:35:44.244Z,4.05
2019-05-20T16:38:14.005Z,3.62
2019-05-20T16:40:43.987Z,4.05
2019-05-20T16:43:14.929Z,3.83
2019-05-20T16:45:51.150Z,4.08
2019-05-20T16:48:22.862Z,4.33
2019-05-20T16:54:03.362Z,3.02
2019-05-20T16:56:33.316Z,2.95
2019-05-20T16:59:04.302Z,2.72
2019-05-20T17:01:45.961Z,2.22
2019-05-20T17:04:09.622Z,2.40
2019-05-20T17:06:39.419Z,2.20
2019-05-20T17:09:13.584Z,2.02
2019-05-20T17:11:43.319Z,1.98
2019-05-20T17:14:13.243Z,2.12
2019-05-20T17:16:43.061Z,2.00
2019-05-20T17:19:13.964Z,1.72
2019-05-20T17:21:43.743Z,1.80
2019-05-20T17:24:13.811Z,1.65
2019-05-20T17:26:43.592Z,1.55
2019-05-20T17:29:12.801Z,1.40
2019-05-20T17:31:42.606Z,1.87
2019-05-20T17:34:15.183Z,1.98
2019-05-20T17:36:44.850Z,1.90
2019-05-20T17:39:14.626Z,1.60
2019-05-20T17:41:44.344Z,1.30
2019-05-20T17:44:14.324Z,1.50
2019-05-20T17:46:44.045Z,1.55
2019-05-20T17:49:14.038Z,1.65
2019-05-20T17:51:43.804Z,1.47
2019-05-20T17:54:16.410Z,2.15
2019-05-20T17:56:46.017Z,1.60
2019-05-20T17:59:15.963Z,1.90
2019-05-20T18:01:45.829Z,1.90
2019-05-20T18:04:15.771Z,4.72
2019-05-20T18:06:45.784Z,3.17
2019-05-20T18:09:15.639Z,3.30
2019-05-20T18:11:45.253Z,3.08
2019-05-20T18:14:14.985Z,2.80
2019-05-20T18:16:44.700Z,3.10
2019-05-20T18:19:14.602Z,2.33
2019-05-20T18:21:44.451Z,1.87
2019-05-20T18:24:14.342Z,1.95
2019-05-20T18:26:44.220Z,2.10
2019-05-20T18:29:14.228Z,2.00
2019-05-20T18:31:43.976Z,1.95
2019-05-20T18:34:13.924Z,2.00
2019-05-20T18:36:43.855Z,1.75
2019-05-20T18:39:18.097Z,2.30
2019-05-20T18:41:47.808Z,2.20
2019-05-20T18:44:19.171Z,2.30
2019-05-20T18:46:52.948Z,2.20
2019-05-20T18:49:29.754Z,1.90
2019-05-20T18:51:59.055Z,1.80
2019-05-20T18:54:28.924Z,2.70
2019-05-20T18:57:00.780Z,2.30
2019-05-20T18:59:33.702Z,3.58
2019-05-20T19:02:06.040Z,2.90
2019-05-20T19:04:56.887Z,4.40
2019-05-20T19:07:46.037Z,3.80
2019-05-20T19:10:28.551Z,2.92
2019-05-20T19:13:10.781Z,3.40
2019-05-20T19:15:41.613Z,3.30
2019-05-20T19:18:18.750Z,2.98
2019-05-20T19:20:50.279Z,3.20
2019-05-20T19:23:24.156Z,2.85
2019-05-20T19:25:56.000Z,2.62
2019-05-20T19:28:34.819Z,2.83
2019-05-20T19:31:14.977Z,2.50
2019-05-20T19:34:03.215Z,3.00
2019-05-20T19:36:53.849Z,3.17
2019-05-20T19:39:06.732Z,2.75
2019-05-20T19:41:40.984Z,5.80
2019-05-20T19:44:13.749Z,2.90
2019-05-20T19:46:48.731Z,2.47
2019-05-20T19:49:27.345Z,3.80
2019-05-20T19:52:00.412Z,3.52
2019-05-20T19:54:36.505Z,4.12
2019-05-20T19:57:09.586Z,4.40
2019-05-20T19:59:44.881Z,3.40
2019-05-20T20:02:32.358Z,3.27
2019-05-20T20:05:06.630Z,4.22
2019-05-20T20:07:45.503Z,4.80
2019-05-20T20:10:24.662Z,4.85
2019-05-20T20:12:58.051Z,5.00
2019-05-20T20:18:24.323Z,5.60
2019-05-20T20:21:04.912Z,5.80
2019-05-20T20:23:28.935Z,5.00
2019-05-20T20:26:01.331Z,4.05
2019-05-20T20:28:37.481Z,4.00
2019-05-20T20:31:10.866Z,4.30
2019-05-20T20:33:43.966Z,4.42
2019-05-20T20:37:48.716Z,4.08
2019-05-20T20:38:49.774Z,3.92
2019-05-20T20:41:22.687Z,3.80
2019-05-20T20:43:52.584Z,3.62
2019-05-20T20:46:24.503Z,3.80
2019-05-20T20:48:54.173Z,3.87
2019-05-20T20:51:24.352Z,3.30
2019-05-20T20:53:55.813Z,3.30
2019-05-20T20:56:29.979Z,3.17
2019-05-20T20:58:59.900Z,3.25
2019-05-20T21:01:31.458Z,2.70
2019-05-20T21:04:11.596Z,2.47
2019-05-20T21:06:45.890Z,2.67
2019-05-20T21:09:14.389Z,2.70
2019-05-20T21:11:50.043Z,2.83
2019-05-20T21:14:22.318Z,3.55
2019-05-20T21:16:57.267Z,3.00
2019-05-20T21:19:31.997Z,3.37
2019-05-20T21:22:09.770Z,2.83
2019-05-20T21:24:40.872Z,3.00
2019-05-20T21:27:13.293Z,2.45
2019-05-20T21:29:43.475Z,2.85
2019-05-20T21:32:13.399Z,2.90
2019-05-20T21:34:50.016Z,3.05
2019-05-20T21:37:15.638Z,2.85
2019-05-20T21:39:45.644Z,2.98
2019-05-20T21:42:19.733Z,2.98
2019-05-20T21:44:47.355Z,3.22
2019-05-20T21:47:20.179Z,3.30
2019-05-20T21:49:50.166Z,3.30
2019-05-20T21:52:22.752Z,5.75
2019-05-20T21:54:52.659Z,4.28
2019-05-20T21:57:24.577Z,3.90
2019-05-20T21:59:54.070Z,3.90
2019-05-20T22:02:26.770Z,3.87
2019-05-20T22:04:57.040Z,3.72
2019-05-20T22:07:29.830Z,3.77
2019-05-20T22:10:03.305Z,4.05
2019-05-20T22:12:33.207Z,4.20
2019-05-20T22:15:02.914Z,5.90
2019-05-20T22:17:32.776Z,5.40
2019-05-20T22:20:06.434Z,4.78
2019-05-20T22:22:47.209Z,4.20
2019-05-20T22:25:19.854Z,4.25
2019-05-20T22:27:49.762Z,4.40
2019-05-20T22:30:21.718Z,5.15
2019-05-20T22:32:51.287Z,4.62
2019-05-20T22:35:21.084Z,3.80
2019-05-20T22:37:52.062Z,4.08
2019-05-20T22:40:23.987Z,4.33
2019-05-20T22:42:54.958Z,4.00
2019-05-20T22:45:27.480Z,3.50
2019-05-20T22:47:57.394Z,4.37
2019-05-20T22:50:33.789Z,4.03
2019-05-20T22:53:10.099Z,3.40
2019-05-20T22:55:39.839Z,3.67
2019-05-20T22:58:10.020Z,3.12
2019-05-20T23:00:42.293Z,3.70
2019-05-20T23:03:12.347Z,3.33
2019-05-20T23:05:42.128Z,4.20
2019-05-20T23:08:22.250Z,3.90
2019-05-20T23:10:55.429Z,3.72
2019-05-20T23:13:27.024Z,3.52
2019-05-20T23:15:59.245Z,3.35
2019-05-20T23:18:32.050Z,3.83
2019-05-20T23:21:03.454Z,4.40
2019-05-20T23:23:34.806Z,4.22
2019-05-20T23:26:08.806Z,4.40
2019-05-20T23:28:41.567Z,4.12
2019-05-20T23:31:16.751Z,4.25
2019-05-20T23:33:46.723Z,3.75
2019-05-20T23:36:18.047Z,3.65
2019-05-20T23:38:48.167Z,3.92
2019-05-20T23:41:18.036Z,4.40
2019-05-20T23:43:50.326Z,4.10
2019-05-20T23:46:22.898Z,3.65
2019-05-20T23:48:52.698Z,3.80
2019-05-20T23:51:22.538Z,3.55
2019-05-20T23:53:54.986Z,4.30
2019-05-20T23:56:28.736Z,3.77
2019-05-20T23:58:58.516Z,4.00
